sensor_id;sensor_type;location;lat;lon;timestamp;pressure;altitude;pressure_sealevel;temperature;humidity
69173;BME280;56280;49.662;8.408;2023-09-19T00:00:56;100180.78;;;18.51;85.15
69173;BME280;56280;49.662;8.408;2023-09-19T00:03:22;100155.25;;;18.32;85.86
69173;BME280;56280;49.662;8.408;2023-09-19T00:05:48;100148.06;;;18.32;85.41
69173;BME280;56280;49.662;8.408;2023-09-19T00:08:15;100165.31;;;18.53;85.42
69173;BME280;56280;49.662;8.408;2023-09-19T00:10:42;100129.50;;;18.22;85.38
69173;BME280;56280;49.662;8.408;2023-09-19T00:13:08;100182.94;;;18.55;85.66
69173;BME280;56280;49.662;8.408;2023-09-19T00:15:39;100180.63;;;18.67;85.34
69173;BME280;56280;49.662;8.408;2023-09-19T00:18:06;100154.34;;;18.54;84.83
69173;BME280;56280;49.662;8.408;2023-09-19T00:20:32;100173.09;;;18.63;85.06
69173;BME280;56280;49.662;8.408;2023-09-19T00:22:58;100160.97;;;18.52;85.48
69173;BME280;56280;49.662;8.408;2023-09-19T00:25:31;100183.97;;;18.69;85.33
69173;BME280;56280;49.662;8.408;2023-09-19T00:28:00;100171.63;;;18.60;85.36
69173;BME280;56280;49.662;8.408;2023-09-19T00:30:26;100098.97;;;18.15;84.53
69173;BME280;56280;49.662;8.408;2023-09-19T00:32:52;100176.28;;;18.66;84.25
69173;BME280;56280;49.662;8.408;2023-09-19T00:35:18;100132.28;;;18.44;83.79
69173;BME280;56280;49.662;8.408;2023-09-19T00:37:44;100184.16;;;18.83;83.40
69173;BME280;56280;49.662;8.408;2023-09-19T00:40:10;100145.91;;;18.57;83.50
69173;BME280;56280;49.662;8.408;2023-09-19T00:42:41;100132.38;;;18.66;82.87
69173;BME280;56280;49.662;8.408;2023-09-19T00:45:08;100139.91;;;18.55;82.32
69173;BME280;56280;49.662;8.408;2023-09-19T00:47:36;100152.25;;;18.65;82.90
69173;BME280;56280;49.662;8.408;2023-09-19T00:50:04;100178.63;;;18.84;82.56
69173;BME280;56280;49.662;8.408;2023-09-19T00:52:32;100212.69;;;19.07;82.27
69173;BME280;56280;49.662;8.408;2023-09-19T00:54:58;100149.56;;;18.65;82.53
69173;BME280;56280;49.662;8.408;2023-09-19T00:57:25;100115.78;;;18.62;81.98
69173;BME280;56280;49.662;8.408;2023-09-19T00:59:53;100143.16;;;18.81;82.53
69173;BME280;56280;49.662;8.408;2023-09-19T01:02:20;100218.59;;;19.17;83.09
69173;BME280;56280;49.662;8.408;2023-09-19T01:04:46;100208.69;;;18.88;84.30
69173;BME280;56280;49.662;8.408;2023-09-19T01:07:11;100200.97;;;18.85;83.99
69173;BME280;56280;49.662;8.408;2023-09-19T01:09:37;100149.16;;;18.53;83.96
69173;BME280;56280;49.662;8.408;2023-09-19T01:12:05;100213.16;;;18.95;84.17
69173;BME280;56280;49.662;8.408;2023-09-19T01:17:27;100207.88;;;18.87;84.16
69173;BME280;56280;49.662;8.408;2023-09-19T01:23:39;100201.13;;;18.83;84.35
69173;BME280;56280;49.662;8.408;2023-09-19T01:30:40;100155.94;;;18.49;84.00
69173;BME280;56280;49.662;8.408;2023-09-19T01:33:08;100208.88;;;19.01;82.93
69173;BME280;56280;49.662;8.408;2023-09-19T01:35:37;100221.84;;;19.12;82.73
69173;BME280;56280;49.662;8.408;2023-09-19T01:38:04;100189.81;;;18.73;82.84
69173;BME280;56280;49.662;8.408;2023-09-19T01:40:30;100220.84;;;18.99;83.16
69173;BME280;56280;49.662;8.408;2023-09-19T01:43:08;100233.22;;;19.08;82.59
69173;BME280;56280;49.662;8.408;2023-09-19T01:45:48;100196.84;;;18.74;82.69
69173;BME280;56280;49.662;8.408;2023-09-19T01:51:05;100251.13;;;19.30;82.15
69173;BME280;56280;49.662;8.408;2023-09-19T01:56:17;100254.81;;;19.29;81.56
69173;BME280;56280;49.662;8.408;2023-09-19T01:58:48;100261.88;;;19.30;81.38
69173;BME280;56280;49.662;8.408;2023-09-19T02:01:22;100173.03;;;18.71;81.82
69173;BME280;56280;49.662;8.408;2023-09-19T02:03:48;100214.34;;;18.93;81.65
69173;BME280;56280;49.662;8.408;2023-09-19T02:06:17;100209.22;;;18.98;81.77
69173;BME280;56280;49.662;8.408;2023-09-19T02:08:44;100243.59;;;19.26;81.40
69173;BME280;56280;49.662;8.408;2023-09-19T02:11:13;100261.59;;;19.25;81.78
69173;BME280;56280;49.662;8.408;2023-09-19T02:13:39;100207.75;;;18.81;82.33
69173;BME280;56280;49.662;8.408;2023-09-19T02:16:06;100272.81;;;19.14;82.50
69173;BME280;56280;49.662;8.408;2023-09-19T02:18:34;100244.53;;;19.03;82.52
69173;BME280;56280;49.662;8.408;2023-09-19T02:21:02;100276.28;;;19.23;82.11
69173;BME280;56280;49.662;8.408;2023-09-19T02:23:29;100188.88;;;18.66;81.96
69173;BME280;56280;49.662;8.408;2023-09-19T02:25:56;100230.09;;;18.81;82.27
69173;BME280;56280;49.662;8.408;2023-09-19T02:28:26;100199.34;;;18.61;82.25
69173;BME280;56280;49.662;8.408;2023-09-19T02:30:55;100268.34;;;18.91;82.19
69173;BME280;56280;49.662;8.408;2023-09-19T02:33:21;100286.66;;;18.96;82.41
69173;BME280;56280;49.662;8.408;2023-09-19T02:35:46;100194.69;;;18.39;81.98
69173;BME280;56280;49.662;8.408;2023-09-19T02:38:12;100293.63;;;18.90;81.78
69173;BME280;56280;49.662;8.408;2023-09-19T02:40:37;100305.50;;;19.11;81.66
69173;BME280;56280;49.662;8.408;2023-09-19T02:43:03;100225.63;;;18.58;81.36
69173;BME280;56280;49.662;8.408;2023-09-19T02:45:30;100237.91;;;18.76;81.01
69173;BME280;56280;49.662;8.408;2023-09-19T02:47:58;100289.44;;;18.88;81.60
69173;BME280;56280;49.662;8.408;2023-09-19T02:50:24;100269.03;;;18.70;81.76
69173;BME280;56280;49.662;8.408;2023-09-19T02:52:49;100219.44;;;18.35;81.88
69173;BME280;56280;49.662;8.408;2023-09-19T02:55:18;100295.88;;;18.78;81.99
69173;BME280;56280;49.662;8.408;2023-09-19T02:57:54;100225.25;;;18.23;82.25
69173;BME280;56280;49.662;8.408;2023-09-19T03:00:20;100227.88;;;18.32;81.77
69173;BME280;56280;49.662;8.408;2023-09-19T03:02:50;100318.50;;;18.92;81.09
69173;BME280;56280;49.662;8.408;2023-09-19T03:05:17;100311.13;;;18.86;81.39
69173;BME280;56280;49.662;8.408;2023-09-19T03:07:43;100321.47;;;18.98;81.33
69173;BME280;56280;49.662;8.408;2023-09-19T03:10:09;100324.25;;;18.89;81.01
69173;BME280;56280;49.662;8.408;2023-09-19T03:12:35;100327.75;;;18.90;81.11
69173;BME280;56280;49.662;8.408;2023-09-19T03:15:01;100274.50;;;18.62;80.49
69173;BME280;56280;49.662;8.408;2023-09-19T03:17:26;100253.84;;;18.39;81.27
69173;BME280;56280;49.662;8.408;2023-09-19T03:19:52;100241.66;;;18.29;80.91
69173;BME280;56280;49.662;8.408;2023-09-19T03:22:19;100290.00;;;18.60;81.08
69173;BME280;56280;49.662;8.408;2023-09-19T03:24:44;100246.88;;;18.30;80.99
69173;BME280;56280;49.662;8.408;2023-09-19T03:27:11;100338.84;;;18.95;80.92
69173;BME280;56280;49.662;8.408;2023-09-19T03:29:39;100301.69;;;18.67;80.72
69173;BME280;56280;49.662;8.408;2023-09-19T03:32:04;100232.97;;;18.27;80.78
69173;BME280;56280;49.662;8.408;2023-09-19T03:34:30;100273.28;;;18.27;81.02
69173;BME280;56280;49.662;8.408;2023-09-19T03:36:55;100289.06;;;18.30;81.61
69173;BME280;56280;49.662;8.408;2023-09-19T03:39:20;100323.06;;;18.46;81.33
69173;BME280;56280;49.662;8.408;2023-09-19T03:41:46;100258.81;;;18.04;81.24
69173;BME280;56280;49.662;8.408;2023-09-19T03:44:11;100320.59;;;18.59;80.52
69173;BME280;56280;49.662;8.408;2023-09-19T03:46:36;100302.41;;;18.23;80.98
69173;BME280;56280;49.662;8.408;2023-09-19T03:49:02;100290.03;;;18.14;80.86
69173;BME280;56280;49.662;8.408;2023-09-19T03:51:28;100261.75;;;17.95;80.86
69173;BME280;56280;49.662;8.408;2023-09-19T03:53:53;100252.81;;;17.71;80.88
69173;BME280;56280;49.662;8.408;2023-09-19T03:56:18;100341.66;;;18.32;80.62
69173;BME280;56280;49.662;8.408;2023-09-19T03:58:43;100303.50;;;17.74;81.25
69173;BME280;56280;49.662;8.408;2023-09-19T04:01:09;100353.47;;;18.23;80.88
69173;BME280;56280;49.662;8.408;2023-09-19T04:03:35;100345.94;;;18.18;80.43
69173;BME280;56280;49.662;8.408;2023-09-19T04:06:14;100291.31;;;17.95;79.83
69173;BME280;56280;49.662;8.408;2023-09-19T04:08:40;100286.84;;;17.79;79.47
69173;BME280;56280;49.662;8.408;2023-09-19T04:11:05;100334.66;;;18.23;79.00
69173;BME280;56280;49.662;8.408;2023-09-19T04:13:31;100349.22;;;18.06;79.26
69173;BME280;56280;49.662;8.408;2023-09-19T04:15:56;100361.13;;;18.03;79.93
69173;BME280;56280;49.662;8.408;2023-09-19T04:18:22;100362.47;;;18.07;79.58
69173;BME280;56280;49.662;8.408;2023-09-19T04:20:52;100347.53;;;18.04;78.86
69173;BME280;56280;49.662;8.408;2023-09-19T04:23:18;100369.91;;;18.28;78.59
69173;BME280;56280;49.662;8.408;2023-09-19T04:25:45;100376.28;;;18.27;78.24
69173;BME280;56280;49.662;8.408;2023-09-19T04:28:11;100341.97;;;18.06;78.12
69173;BME280;56280;49.662;8.408;2023-09-19T04:30:39;100321.94;;;17.77;78.55
69173;BME280;56280;49.662;8.408;2023-09-19T04:33:07;100312.25;;;17.68;78.84
69173;BME280;56280;49.662;8.408;2023-09-19T04:35:33;100286.69;;;17.41;78.60
69173;BME280;56280;49.662;8.408;2023-09-19T04:37:58;100301.94;;;17.48;78.50
69173;BME280;56280;49.662;8.408;2023-09-19T04:40:23;100326.25;;;17.55;78.49
69173;BME280;56280;49.662;8.408;2023-09-19T04:42:57;100395.94;;;17.96;79.03
69173;BME280;56280;49.662;8.408;2023-09-19T04:45:26;100392.31;;;17.89;78.38
69173;BME280;56280;49.662;8.408;2023-09-19T04:47:53;100385.41;;;17.78;78.13
69173;BME280;56280;49.662;8.408;2023-09-19T04:50:19;100367.69;;;17.61;78.44
69173;BME280;56280;49.662;8.408;2023-09-19T04:52:49;100301.81;;;17.34;78.05
69173;BME280;56280;49.662;8.408;2023-09-19T04:55:17;100414.06;;;18.02;77.54
69173;BME280;56280;49.662;8.408;2023-09-19T04:57:47;100414.75;;;17.96;77.87
69173;BME280;56280;49.662;8.408;2023-09-19T05:00:17;100420.44;;;18.10;77.17
69173;BME280;56280;49.662;8.408;2023-09-19T05:02:45;100370.84;;;17.64;77.46
69173;BME280;56280;49.662;8.408;2023-09-19T05:05:10;100415.63;;;17.80;78.07
69173;BME280;56280;49.662;8.408;2023-09-19T05:07:37;100434.72;;;18.10;77.54
69173;BME280;56280;49.662;8.408;2023-09-19T05:10:03;100386.72;;;17.99;77.18
69173;BME280;56280;49.662;8.408;2023-09-19T05:12:33;100429.53;;;18.32;76.50
69173;BME280;56280;49.662;8.408;2023-09-19T05:14:59;100404.91;;;18.20;76.12
69173;BME280;56280;49.662;8.408;2023-09-19T05:17:25;100409.47;;;18.19;75.77
69173;BME280;56280;49.662;8.408;2023-09-19T05:19:50;100425.50;;;18.36;75.51
69173;BME280;56280;49.662;8.408;2023-09-19T05:22:15;100437.56;;;18.48;75.51
69173;BME280;56280;49.662;8.408;2023-09-19T05:24:42;100439.31;;;18.56;74.99
69173;BME280;56280;49.662;8.408;2023-09-19T05:27:07;100449.09;;;18.57;74.40
69173;BME280;56280;49.662;8.408;2023-09-19T05:29:33;100435.75;;;18.64;74.15
69173;BME280;56280;49.662;8.408;2023-09-19T05:31:59;100444.41;;;18.74;73.43
69173;BME280;56280;49.662;8.408;2023-09-19T05:34:24;100432.06;;;18.65;73.34
69173;BME280;56280;49.662;8.408;2023-09-19T05:36:55;100433.78;;;18.81;72.75
69173;BME280;56280;49.662;8.408;2023-09-19T05:39:20;100430.59;;;18.77;72.65
69173;BME280;56280;49.662;8.408;2023-09-19T05:41:45;100426.91;;;18.78;72.41
69173;BME280;56280;49.662;8.408;2023-09-19T05:44:13;100437.75;;;18.93;72.10
69173;BME280;56280;49.662;8.408;2023-09-19T05:46:39;100425.41;;;18.84;71.90
69173;BME280;56280;49.662;8.408;2023-09-19T05:49:04;100434.41;;;18.91;72.03
69173;BME280;56280;49.662;8.408;2023-09-19T05:51:30;100440.97;;;18.88;71.40
69173;BME280;56280;49.662;8.408;2023-09-19T05:53:55;100393.59;;;18.56;71.93
69173;BME280;56280;49.662;8.408;2023-09-19T05:56:21;100407.16;;;18.63;71.26
69173;BME280;56280;49.662;8.408;2023-09-19T05:58:46;100380.72;;;18.43;71.12
69173;BME280;56280;49.662;8.408;2023-09-19T06:01:11;100416.22;;;18.70;71.27
69173;BME280;56280;49.662;8.408;2023-09-19T06:03:37;100455.16;;;19.05;70.88
69173;BME280;56280;49.662;8.408;2023-09-19T06:06:02;100420.47;;;18.87;70.63
69173;BME280;56280;49.662;8.408;2023-09-19T06:08:29;100445.72;;;19.09;70.62
69173;BME280;56280;49.662;8.408;2023-09-19T06:10:56;100394.75;;;18.85;70.22
69173;BME280;56280;49.662;8.408;2023-09-19T06:13:21;100465.59;;;19.46;69.84
69173;BME280;56280;49.662;8.408;2023-09-19T06:15:47;100476.81;;;19.50;69.36
69173;BME280;56280;49.662;8.408;2023-09-19T06:18:13;100476.38;;;19.61;68.87
69173;BME280;56280;49.662;8.408;2023-09-19T06:20:46;100409.44;;;19.35;68.35
69173;BME280;56280;49.662;8.408;2023-09-19T06:23:12;100439.75;;;19.67;68.56
69173;BME280;56280;49.662;8.408;2023-09-19T06:25:41;100482.19;;;19.88;68.25
69173;BME280;56280;49.662;8.408;2023-09-19T06:28:06;100427.19;;;19.59;68.27
69173;BME280;56280;49.662;8.408;2023-09-19T06:30:33;100456.44;;;20.00;67.46
69173;BME280;56280;49.662;8.408;2023-09-19T06:33:00;100438.13;;;19.96;67.43
69173;BME280;56280;49.662;8.408;2023-09-19T06:35:26;100483.75;;;20.27;66.40
69173;BME280;56280;49.662;8.408;2023-09-19T06:37:52;100472.66;;;20.22;66.49
69173;BME280;56280;49.662;8.408;2023-09-19T06:40:18;100408.38;;;19.74;66.26
69173;BME280;56280;49.662;8.408;2023-09-19T06:42:46;100481.25;;;20.11;66.20
69173;BME280;56280;49.662;8.408;2023-09-19T06:45:12;100499.00;;;20.20;66.05
69173;BME280;56280;49.662;8.408;2023-09-19T06:47:43;100472.97;;;19.97;65.60
69173;BME280;56280;49.662;8.408;2023-09-19T06:50:08;100503.41;;;20.06;65.66
69173;BME280;56280;49.662;8.408;2023-09-19T06:52:39;100433.91;;;19.48;65.11
69173;BME280;56280;49.662;8.408;2023-09-19T06:55:05;100464.63;;;19.77;65.22
69173;BME280;56280;49.662;8.408;2023-09-19T06:57:34;100442.53;;;19.59;64.04
69173;BME280;56280;49.662;8.408;2023-09-19T07:00:11;100482.53;;;19.85;63.61
69173;BME280;56280;49.662;8.408;2023-09-19T07:03:16;100434.91;;;19.47;63.67
69173;BME280;56280;49.662;8.408;2023-09-19T07:05:52;100446.34;;;19.49;64.13
69173;BME280;56280;49.662;8.408;2023-09-19T07:08:23;100467.06;;;19.64;63.42
69173;BME280;56280;49.662;8.408;2023-09-19T07:10:49;100525.41;;;20.25;63.62
69173;BME280;56280;49.662;8.408;2023-09-19T07:13:15;100527.72;;;20.43;62.81
69173;BME280;56280;49.662;8.408;2023-09-19T07:15:43;100533.03;;;20.36;61.90
69173;BME280;56280;49.662;8.408;2023-09-19T07:18:17;100530.59;;;20.41;61.55
69173;BME280;56280;49.662;8.408;2023-09-19T07:20:44;100527.25;;;20.54;61.58
69173;BME280;56280;49.662;8.408;2023-09-19T07:23:19;100519.44;;;20.74;60.31
69173;BME280;56280;49.662;8.408;2023-09-19T07:25:47;100533.38;;;20.77;60.10
69173;BME280;56280;49.662;8.408;2023-09-19T07:28:13;100543.63;;;21.04;59.78
69173;BME280;56280;49.662;8.408;2023-09-19T07:30:39;100566.09;;;21.26;58.95
69173;BME280;56280;49.662;8.408;2023-09-19T07:33:05;100565.00;;;21.42;58.95
69173;BME280;56280;49.662;8.408;2023-09-19T07:35:31;100561.13;;;21.29;59.45
69173;BME280;56280;49.662;8.408;2023-09-19T07:37:57;100573.53;;;21.45;59.13
69173;BME280;56280;49.662;8.408;2023-09-19T07:40:23;100579.41;;;21.49;59.15
69173;BME280;56280;49.662;8.408;2023-09-19T07:42:52;100580.09;;;21.79;58.57
69173;BME280;56280;49.662;8.408;2023-09-19T07:45:17;100580.59;;;21.90;57.35
69173;BME280;56280;49.662;8.408;2023-09-19T07:47:46;100576.94;;;22.04;57.86
69173;BME280;56280;49.662;8.408;2023-09-19T07:50:12;100519.75;;;21.72;56.56
69173;BME280;56280;49.662;8.408;2023-09-19T07:52:38;100578.97;;;22.24;55.98
69173;BME280;56280;49.662;8.408;2023-09-19T07:55:05;100557.41;;;22.09;55.30
69173;BME280;56280;49.662;8.408;2023-09-19T07:57:34;100580.06;;;22.01;55.33
69173;BME280;56280;49.662;8.408;2023-09-19T08:00:00;100559.63;;;21.98;54.89
69173;BME280;56280;49.662;8.408;2023-09-19T08:02:25;100590.78;;;22.16;54.74
69173;BME280;56280;49.662;8.408;2023-09-19T08:04:51;100593.56;;;22.29;54.64
69173;BME280;56280;49.662;8.408;2023-09-19T08:07:17;100588.88;;;22.16;53.29
69173;BME280;56280;49.662;8.408;2023-09-19T08:09:43;100600.66;;;22.02;53.58
69173;BME280;56280;49.662;8.408;2023-09-19T08:12:11;100597.75;;;22.03;53.81
69173;BME280;56280;49.662;8.408;2023-09-19T08:14:37;100596.06;;;21.74;53.92
69173;BME280;56280;49.662;8.408;2023-09-19T08:17:03;100572.81;;;21.80;53.99
69173;BME280;56280;49.662;8.408;2023-09-19T08:19:30;100603.03;;;22.18;53.03
69173;BME280;56280;49.662;8.408;2023-09-19T08:21:57;100591.00;;;21.93;52.81
69173;BME280;56280;49.662;8.408;2023-09-19T08:24:29;100582.59;;;21.81;52.56
69173;BME280;56280;49.662;8.408;2023-09-19T08:26:56;100601.28;;;21.76;53.10
69173;BME280;56280;49.662;8.408;2023-09-19T08:29:22;100601.78;;;21.86;52.86
69173;BME280;56280;49.662;8.408;2023-09-19T08:31:53;100599.78;;;21.95;52.28
69173;BME280;56280;49.662;8.408;2023-09-19T08:34:18;100595.63;;;21.99;52.71
69173;BME280;56280;49.662;8.408;2023-09-19T08:36:44;100603.91;;;22.19;51.08
69173;BME280;56280;49.662;8.408;2023-09-19T08:39:10;100600.41;;;21.97;50.34
69173;BME280;56280;49.662;8.408;2023-09-19T08:41:36;100613.81;;;22.33;52.02
69173;BME280;56280;49.662;8.408;2023-09-19T08:44:02;100591.03;;;22.28;51.15
69173;BME280;56280;49.662;8.408;2023-09-19T08:46:30;100597.81;;;22.38;50.40
69173;BME280;56280;49.662;8.408;2023-09-19T08:49:04;100613.34;;;22.30;50.75
69173;BME280;56280;49.662;8.408;2023-09-19T08:51:41;100619.53;;;22.24;50.93
69173;BME280;56280;49.662;8.408;2023-09-19T08:54:15;100618.91;;;22.50;50.57
69173;BME280;56280;49.662;8.408;2023-09-19T08:56:46;100569.09;;;22.09;50.53
69173;BME280;56280;49.662;8.408;2023-09-19T08:59:12;100608.19;;;22.35;50.96
69173;BME280;56280;49.662;8.408;2023-09-19T09:01:38;100610.25;;;22.33;50.37
69173;BME280;56280;49.662;8.408;2023-09-19T09:04:09;100595.06;;;22.32;50.11
69173;BME280;56280;49.662;8.408;2023-09-19T09:06:34;100606.31;;;22.77;49.80
69173;BME280;56280;49.662;8.408;2023-09-19T09:09:01;100592.00;;;22.90;49.05
69173;BME280;56280;49.662;8.408;2023-09-19T09:11:28;100620.38;;;23.01;48.08
69173;BME280;56280;49.662;8.408;2023-09-19T09:13:54;100602.34;;;22.73;47.37
69173;BME280;56280;49.662;8.408;2023-09-19T09:16:19;100630.31;;;22.80;48.19
69173;BME280;56280;49.662;8.408;2023-09-19T09:18:45;100608.50;;;22.53;48.40
69173;BME280;56280;49.662;8.408;2023-09-19T09:21:11;100635.78;;;22.52;48.00
69173;BME280;56280;49.662;8.408;2023-09-19T09:23:37;100592.59;;;22.37;47.65
69173;BME280;56280;49.662;8.408;2023-09-19T09:26:03;100649.63;;;22.35;47.54
69173;BME280;56280;49.662;8.408;2023-09-19T09:28:31;100637.81;;;22.21;48.21
69173;BME280;56280;49.662;8.408;2023-09-19T09:30:58;100635.84;;;22.30;48.17
69173;BME280;56280;49.662;8.408;2023-09-19T09:33:24;100607.41;;;22.13;47.93
69173;BME280;56280;49.662;8.408;2023-09-19T09:36:02;100621.34;;;22.16;48.73
69173;BME280;56280;49.662;8.408;2023-09-19T09:38:46;100642.44;;;22.49;47.89
69173;BME280;56280;49.662;8.408;2023-09-19T09:41:15;100628.69;;;22.51;48.33
69173;BME280;56280;49.662;8.408;2023-09-19T09:43:52;100643.03;;;22.45;48.42
69173;BME280;56280;49.662;8.408;2023-09-19T09:46:19;100641.81;;;22.26;48.80
69173;BME280;56280;49.662;8.408;2023-09-19T09:49:03;100633.50;;;21.99;49.38
69173;BME280;56280;49.662;8.408;2023-09-19T09:54:23;100597.22;;;22.43;48.30
69173;BME280;56280;49.662;8.408;2023-09-19T09:56:58;100625.25;;;22.70;47.92
69173;BME280;56280;49.662;8.408;2023-09-19T09:59:44;100624.66;;;22.75;47.34
69173;BME280;56280;49.662;8.408;2023-09-19T10:02:35;100602.47;;;22.58;47.49
69173;BME280;56280;49.662;8.408;2023-09-19T10:05:24;100619.91;;;22.84;47.20
69173;BME280;56280;49.662;8.408;2023-09-19T10:07:53;100614.97;;;23.01;47.21
69173;BME280;56280;49.662;8.408;2023-09-19T10:10:34;100615.31;;;22.91;46.74
69173;BME280;56280;49.662;8.408;2023-09-19T10:13:13;100618.09;;;22.98;46.27
69173;BME280;56280;49.662;8.408;2023-09-19T10:15:42;100603.78;;;23.10;46.17
69173;BME280;56280;49.662;8.408;2023-09-19T10:18:14;100578.91;;;23.07;45.97
69173;BME280;56280;49.662;8.408;2023-09-19T10:20:45;100620.59;;;23.06;46.22
69173;BME280;56280;49.662;8.408;2023-09-19T10:23:11;100602.22;;;22.94;45.92
69173;BME280;56280;49.662;8.408;2023-09-19T10:25:41;100592.75;;;22.64;45.70
69173;BME280;56280;49.662;8.408;2023-09-19T10:28:09;100615.28;;;22.77;45.69
69173;BME280;56280;49.662;8.408;2023-09-19T10:30:41;100616.66;;;23.08;45.68
69173;BME280;56280;49.662;8.408;2023-09-19T10:33:09;100598.47;;;22.95;46.04
69173;BME280;56280;49.662;8.408;2023-09-19T10:35:38;100607.06;;;23.06;45.58
69173;BME280;56280;49.662;8.408;2023-09-19T10:38:06;100550.03;;;22.59;45.46
69173;BME280;56280;49.662;8.408;2023-09-19T10:40:32;100621.28;;;23.15;45.40
69173;BME280;56280;49.662;8.408;2023-09-19T10:43:03;100598.78;;;23.27;45.39
69173;BME280;56280;49.662;8.408;2023-09-19T10:45:34;100620.28;;;23.36;44.99
69173;BME280;56280;49.662;8.408;2023-09-19T10:48:03;100597.56;;;23.37;45.58
69173;BME280;56280;49.662;8.408;2023-09-19T10:50:35;100608.00;;;23.60;44.65
69173;BME280;56280;49.662;8.408;2023-09-19T10:53:04;100601.09;;;23.44;44.13
69173;BME280;56280;49.662;8.408;2023-09-19T10:55:33;100615.53;;;23.58;45.11
69173;BME280;56280;49.662;8.408;2023-09-19T10:58:00;100587.34;;;23.39;44.15
69173;BME280;56280;49.662;8.408;2023-09-19T11:00:26;100594.44;;;23.46;43.34
69173;BME280;56280;49.662;8.408;2023-09-19T11:08:50;100589.44;;;23.63;43.92
69173;BME280;56280;49.662;8.408;2023-09-19T11:14:29;100546.69;;;23.39;43.34
69173;BME280;56280;49.662;8.408;2023-09-19T11:30:34;100569.69;;;23.83;41.34
69173;BME280;56280;49.662;8.408;2023-09-19T11:33:26;100566.75;;;23.84;41.70
69173;BME280;56280;49.662;8.408;2023-09-19T11:36:13;100558.78;;;23.56;41.31
69173;BME280;56280;49.662;8.408;2023-09-19T11:46:34;100554.59;;;23.47;40.81
69173;BME280;56280;49.662;8.408;2023-09-19T11:49:16;100545.84;;;23.25;42.72
69173;BME280;56280;49.662;8.408;2023-09-19T11:51:46;100538.75;;;23.37;42.17
69173;BME280;56280;49.662;8.408;2023-09-19T11:54:13;100545.84;;;23.58;42.17
69173;BME280;56280;49.662;8.408;2023-09-19T11:56:49;100554.63;;;23.74;42.43
69173;BME280;56280;49.662;8.408;2023-09-19T11:59:20;100545.00;;;23.71;41.37
69173;BME280;56280;49.662;8.408;2023-09-19T12:01:51;100549.19;;;23.87;41.82
69173;BME280;56280;49.662;8.408;2023-09-19T12:04:43;100527.94;;;23.64;41.80
69173;BME280;56280;49.662;8.408;2023-09-19T12:07:11;100512.91;;;23.48;41.85
69173;BME280;56280;49.662;8.408;2023-09-19T12:10:03;100535.44;;;23.42;43.41
69173;BME280;56280;49.662;8.408;2023-09-19T12:12:29;100539.41;;;23.59;42.52
69173;BME280;56280;49.662;8.408;2023-09-19T12:14:56;100537.94;;;23.77;42.09
69173;BME280;56280;49.662;8.408;2023-09-19T12:17:34;100532.94;;;23.87;43.71
69173;BME280;56280;49.662;8.408;2023-09-19T12:20:01;100527.91;;;23.84;42.62
69173;BME280;56280;49.662;8.408;2023-09-19T12:25:09;100530.41;;;23.92;42.42
69173;BME280;56280;49.662;8.408;2023-09-19T12:27:46;100518.31;;;23.95;41.30
69173;BME280;56280;49.662;8.408;2023-09-19T12:30:12;100529.16;;;23.95;42.30
69173;BME280;56280;49.662;8.408;2023-09-19T12:32:42;100520.81;;;23.96;42.34
69173;BME280;56280;49.662;8.408;2023-09-19T12:35:08;100490.13;;;23.82;41.68
69173;BME280;56280;49.662;8.408;2023-09-19T12:37:37;100487.44;;;23.69;42.17
69173;BME280;56280;49.662;8.408;2023-09-19T12:40:07;100490.59;;;23.86;42.38
69173;BME280;56280;49.662;8.408;2023-09-19T12:42:53;100471.38;;;23.74;41.20
69173;BME280;56280;49.662;8.408;2023-09-19T12:45:23;100499.53;;;23.80;41.91
69173;BME280;56280;49.662;8.408;2023-09-19T12:48:17;100512.50;;;23.84;41.68
69173;BME280;56280;49.662;8.408;2023-09-19T12:51:01;100511.41;;;23.92;42.00
69173;BME280;56280;49.662;8.408;2023-09-19T12:53:30;100501.84;;;23.90;41.87
69173;BME280;56280;49.662;8.408;2023-09-19T12:55:58;100476.78;;;23.88;42.48
69173;BME280;56280;49.662;8.408;2023-09-19T12:58:24;100474.50;;;23.71;41.55
69173;BME280;56280;49.662;8.408;2023-09-19T13:00:49;100466.16;;;23.73;41.99
69173;BME280;56280;49.662;8.408;2023-09-19T13:03:26;100493.69;;;23.70;41.86
69173;BME280;56280;49.662;8.408;2023-09-19T13:06:01;100502.25;;;23.66;42.83
69173;BME280;56280;49.662;8.408;2023-09-19T13:08:29;100482.81;;;23.76;43.12
69173;BME280;56280;49.662;8.408;2023-09-19T13:11:15;100448.84;;;23.74;41.98
69173;BME280;56280;49.662;8.408;2023-09-19T13:13:46;100495.56;;;24.02;41.74
69173;BME280;56280;49.662;8.408;2023-09-19T13:16:19;100397.19;;;23.35;42.20
69173;BME280;56280;49.662;8.408;2023-09-19T13:21:13;100485.59;;;23.83;42.36
69173;BME280;56280;49.662;8.408;2023-09-19T13:26:45;100405.31;;;23.02;42.51
69173;BME280;56280;49.662;8.408;2023-09-19T13:29:11;100461.00;;;23.44;42.48
69173;BME280;56280;49.662;8.408;2023-09-19T13:31:36;100459.94;;;23.32;42.25
69173;BME280;56280;49.662;8.408;2023-09-19T13:34:06;100429.31;;;23.32;42.77
69173;BME280;56280;49.662;8.408;2023-09-19T13:36:32;100437.41;;;23.45;42.38
69173;BME280;56280;49.662;8.408;2023-09-19T13:38:57;100400.16;;;23.14;42.83
69173;BME280;56280;49.662;8.408;2023-09-19T13:41:24;100445.50;;;23.65;41.75
69173;BME280;56280;49.662;8.408;2023-09-19T13:43:49;100400.91;;;23.54;42.08
69173;BME280;56280;49.662;8.408;2023-09-19T13:46:14;100415.28;;;23.55;42.39
69173;BME280;56280;49.662;8.408;2023-09-19T13:48:42;100377.84;;;23.25;42.45
69173;BME280;56280;49.662;8.408;2023-09-19T13:51:07;100458.63;;;23.95;42.41
69173;BME280;56280;49.662;8.408;2023-09-19T13:53:32;100441.09;;;23.77;42.03
69173;BME280;56280;49.662;8.408;2023-09-19T13:55:58;100424.25;;;23.55;42.33